Terminal Aerodrome Forecast
Issued by NWS Paducah, KY

Home | Current Version | Previous Version | Text Only | Print | Product List | Glossary On
Versions: 1 2 3 4 5 6 7 8 9 10 11 12 13 14 15 16 17 18 19 20 21 22 23 24 25
000
FTUS43 KPAH 061047 AAB
TAFPAH
TAF AMD
KPAH 061047Z 0611/0706 22003KT 2SM BR BKN005
      TEMPO 0611/0614 4SM BR BKN009
     FM061400 21004KT 4SM BR BKN025
     FM061600 22008KT P6SM SCT035
     FM070100 19006KT P6SM FEW050=

USA.gov is the U.S. government's official web portal to all federal, state and local government web resources and services.